Time;durP1;ratioP1;P1;durP2;ratioP2;P2;SDS_P1;SDS_P2;PMS_P1;PMS_P2;Temp;Humidity;BMP_temperature;BMP_pressure;BME280_temperature;BME280_humidity;BME280_pressure;Samples;Min_cycle;Max_cycle;Signal;HPM_P1;HPM_P2
2024/03/09 00:00:21;;;;;;;19.57;14.70;;;9.30;61.40;;;;;;5055243;28;20449;-56
2024/03/09 00:02:51;;;;;;;22.30;15.60;;;9.30;61.90;;;;;;5055095;28;20511;-56
2024/03/09 00:05:19;;;;;;;21.40;15.40;;;9.30;62.20;;;;;;5055101;28;20541;-55
2024/03/09 00:07:47;;;;;;;25.00;16.10;;;9.30;62.40;;;;;;5054956;28;20507;-56
2024/03/09 00:10:15;;;;;;;23.57;16.37;;;9.30;62.50;;;;;;5054880;28;20448;-55
2024/03/09 00:12:43;;;;;;;27.53;17.93;;;9.30;62.70;;;;;;5054838;28;20596;-55
2024/03/09 00:15:12;;;;;;;20.73;15.37;;;9.20;62.90;;;;;;5054893;28;20458;-56
2024/03/09 00:17:41;;;;;;;22.47;15.47;;;9.20;63.30;;;;;;5054311;28;20453;-55
2024/03/09 00:20:11;;;;;;;22.20;17.20;;;9.20;63.40;;;;;;5054852;28;20507;-55
2024/03/09 00:22:38;;;;;;;21.20;15.20;;;9.20;63.50;;;;;;5054814;28;20537;-56
2024/03/09 00:25:08;;;;;;;21.40;15.00;;;9.20;63.60;;;;;;5055111;28;20466;-56
2024/03/09 00:27:35;;;;;;;18.30;13.73;;;9.20;63.80;;;;;;5055071;28;20446;-56
2024/03/09 00:30:02;;;;;;;18.33;13.80;;;9.10;63.80;;;;;;5054570;28;20445;-56
2024/03/09 00:32:30;;;;;;;22.50;14.53;;;9.10;64.00;;;;;;5054704;28;20717;-55
2024/03/09 00:34:57;;;;;;;20.87;14.80;;;9.10;65.00;;;;;;5054462;28;20469;-56
2024/03/09 00:37:24;;;;;;;19.10;13.73;;;9.10;64.20;;;;;;5054092;28;20445;-55
2024/03/09 00:39:51;;;;;;;17.80;11.80;;;9.10;64.00;;;;;;5053513;28;20448;-56
2024/03/09 00:42:19;;;;;;;21.77;16.73;;;9.10;64.20;;;;;;5054037;28;20438;-56
2024/03/09 00:44:46;;;;;;;19.30;12.90;;;9.10;64.30;;;;;;5054179;28;20466;-56
2024/03/09 00:47:14;;;;;;;19.37;13.07;;;9.10;64.50;;;;;;5054192;28;20451;-56
2024/03/09 00:49:41;;;;;;;19.23;13.63;;;9.00;65.00;;;;;;5054150;28;20461;-55
2024/03/09 00:52:09;;;;;;;19.33;14.77;;;9.00;65.00;;;;;;5053880;28;20473;-56
2024/03/09 00:54:37;;;;;;;19.20;13.40;;;9.00;65.50;;;;;;5053214;28;20482;-56
2024/03/09 00:57:04;;;;;;;16.60;12.63;;;9.00;65.70;;;;;;5053103;28;20442;-56
2024/03/09 00:59:32;;;;;;;19.40;13.63;;;9.00;65.70;;;;;;5053515;28;20792;-56
2024/03/09 01:02:01;;;;;;;16.53;12.37;;;8.90;65.70;;;;;;5053468;28;20449;-56
2024/03/09 01:04:28;;;;;;;20.13;14.53;;;8.90;65.80;;;;;;5053926;28;20449;-56
2024/03/09 01:06:57;;;;;;;17.17;12.40;;;8.90;66.40;;;;;;5053798;28;20442;-56
2024/03/09 01:09:25;;;;;;;16.80;12.07;;;8.80;66.60;;;;;;5053710;28;20449;-56
2024/03/09 01:11:52;;;;;;;18.97;12.87;;;8.80;67.20;;;;;;5053543;28;20455;-56
2024/03/09 01:14:19;;;;;;;18.97;12.60;;;8.80;67.50;;;;;;5053310;28;20840;-56
2024/03/09 01:16:47;;;;;;;17.70;12.87;;;8.70;68.00;;;;;;5053660;28;20528;-56
2024/03/09 01:19:14;;;;;;;17.90;13.30;;;8.70;67.90;;;;;;5054528;28;20449;-55
2024/03/09 01:21:41;;;;;;;17.20;13.07;;;8.70;67.80;;;;;;5053330;28;20453;-55
2024/03/09 01:24:08;;;;;;;19.73;13.33;;;8.70;68.00;;;;;;5053136;28;20912;-56
2024/03/09 01:26:35;;;;;;;19.00;13.30;;;8.70;68.20;;;;;;5053518;28;20445;-56
2024/03/09 01:29:02;;;;;;;18.50;12.00;;;8.70;67.70;;;;;;5053293;28;20865;-56
2024/03/09 01:31:29;;;;;;;16.67;13.20;;;8.70;67.90;;;;;;5053493;28;20480;-56
2024/03/09 01:33:58;;;;;;;19.43;11.67;;;8.70;68.30;;;;;;5053441;28;20911;-56
2024/03/09 01:36:26;;;;;;;18.63;12.03;;;8.60;68.40;;;;;;5053500;28;20465;-55
2024/03/09 01:38:53;;;;;;;16.70;12.37;;;8.60;68.90;;;;;;5053110;28;20943;-56
2024/03/09 01:41:22;;;;;;;17.70;12.10;;;8.60;69.20;;;;;;5053386;28;20457;-56
2024/03/09 01:43:48;;;;;;;15.47;11.83;;;8.60;69.70;;;;;;5053473;28;20442;-56
2024/03/09 01:46:17;;;;;;;17.57;12.03;;;8.60;69.80;;;;;;5053490;28;20465;-56
2024/03/09 01:48:45;;;;;;;18.10;12.77;;;8.60;69.70;;;;;;5053533;28;20537;-56
2024/03/09 01:51:15;;;;;;;16.73;12.00;;;8.60;69.80;;;;;;5053699;28;20448;-56
2024/03/09 01:53:43;;;;;;;17.67;12.63;;;8.60;70.10;;;;;;5052848;28;20534;-56
2024/03/09 01:56:11;;;;;;;18.20;12.03;;;8.60;70.30;;;;;;5053243;28;20532;-56
2024/03/09 01:58:41;;;;;;;16.73;11.53;;;8.60;70.40;;;;;;5053292;28;20507;-56
2024/03/09 02:01:21;;;;;;;14.73;11.77;;;8.60;70.50;;;;;;5053122;28;20450;-56
2024/03/09 02:03:52;;;;;;;16.63;11.57;;;8.60;70.40;;;;;;5053245;28;20425;-56
2024/03/09 02:06:23;;;;;;;17.60;12.53;;;8.60;70.30;;;;;;5053102;28;20468;-56
2024/03/09 02:08:51;;;;;;;17.37;11.80;;;8.60;70.70;;;;;;5052764;28;20938;-56
2024/03/09 02:11:18;;;;;;;20.97;13.30;;;8.70;71.50;;;;;;5053124;28;20441;-56
2024/03/09 02:13:46;;;;;;;16.23;12.03;;;8.70;71.60;;;;;;5052874;28;20477;-56
2024/03/09 02:16:13;;;;;;;15.40;11.77;;;8.70;71.30;;;;;;5053069;28;20491;-56
2024/03/09 02:18:40;;;;;;;17.77;12.97;;;8.70;71.10;;;;;;5053345;28;20457;-56
2024/03/09 02:21:09;;;;;;;15.40;11.60;;;8.70;71.00;;;;;;5052964;28;20442;-56
2024/03/09 02:23:38;;;;;;;17.27;12.93;;;8.70;71.10;;;;;;5052867;28;20442;-56
2024/03/09 02:26:06;;;;;;;16.50;11.93;;;8.70;71.50;;;;;;5052447;28;20837;-56
2024/03/09 02:28:34;;;;;;;15.00;11.60;;;8.70;71.50;;;;;;5052885;28;20437;-56
2024/03/09 02:31:01;;;;;;;14.13;10.43;;;8.70;71.60;;;;;;5052861;28;20800;-56
2024/03/09 02:33:28;;;;;;;16.83;12.83;;;8.70;71.90;;;;;;5052757;28;20487;-56
2024/03/09 02:35:56;;;;;;;16.27;12.60;;;8.60;72.80;;;;;;5052561;28;20473;-56
2024/03/09 02:38:24;;;;;;;14.73;11.37;;;8.60;73.00;;;;;;5052733;28;20445;-56
2024/03/09 02:40:51;;;;;;;14.37;11.00;;;8.60;73.10;;;;;;5052783;28;20499;-55
2024/03/09 02:43:22;;;;;;;14.23;11.53;;;8.60;73.40;;;;;;5052424;28;20962;-56
2024/03/09 02:45:49;;;;;;;14.80;11.80;;;8.60;72.80;;;;;;5052587;28;20468;-55
2024/03/09 02:48:16;;;;;;;14.73;11.97;;;8.60;73.40;;;;;;5052603;28;20452;-56
2024/03/09 02:50:43;;;;;;;16.97;12.60;;;8.60;73.50;;;;;;5052632;28;20537;-56
2024/03/09 02:53:10;;;;;;;17.10;12.40;;;8.60;73.80;;;;;;5053012;28;20487;-56
2024/03/09 02:55:37;;;;;;;13.57;11.53;;;8.60;74.80;;;;;;5053294;28;20500;-56
2024/03/09 02:58:04;;;;;;;17.57;12.30;;;8.60;74.10;;;;;;5053088;28;20931;-56
2024/03/09 03:00:32;;;;;;;17.73;11.70;;;8.60;74.40;;;;;;5052979;28;20445;-56
2024/03/09 03:05:44;;;;;;;14.60;11.80;;;8.60;74.30;;;;;;5056255;28;20970;-55
2024/03/09 03:08:13;;;;;;;15.53;12.00;;;8.60;74.70;;;;;;5056265;28;20441;-55
2024/03/09 03:10:40;;;;;;;16.00;12.33;;;8.60;74.70;;;;;;5055960;28;20870;-56
2024/03/09 03:13:08;;;;;;;15.13;11.37;;;8.60;75.70;;;;;;5055675;28;20951;-56
2024/03/09 03:15:37;;;;;;;17.10;12.57;;;8.60;74.80;;;;;;5055922;28;20519;-55
2024/03/09 03:18:07;;;;;;;15.13;11.20;;;8.60;75.10;;;;;;5055717;28;20457;-55
2024/03/09 03:20:35;;;;;;;20.30;13.10;;;8.50;74.90;;;;;;5056650;28;20449;-55
2024/03/09 03:23:03;;;;;;;15.43;12.07;;;8.50;75.20;;;;;;5056103;28;20477;-56
2024/03/09 03:25:30;;;;;;;18.30;13.10;;;8.50;75.40;;;;;;5055990;28;20475;-56
2024/03/09 03:27:57;;;;;;;17.70;11.73;;;8.50;75.80;;;;;;5056168;28;20448;-55
2024/03/09 03:30:25;;;;;;;17.77;12.57;;;8.50;76.10;;;;;;5055672;28;20540;-56
2024/03/09 03:32:54;;;;;;;14.50;11.70;;;8.40;76.10;;;;;;5055758;28;20449;-56
2024/03/09 03:35:24;;;;;;;15.77;12.27;;;8.50;76.30;;;;;;5055440;28;20476;-56
2024/03/09 03:37:53;;;;;;;16.57;12.10;;;8.40;76.40;;;;;;5056070;28;20453;-56
2024/03/09 03:40:23;;;;;;;17.10;11.93;;;8.50;76.80;;;;;;5055390;28;20947;-56
2024/03/09 03:42:50;;;;;;;16.03;11.07;;;8.40;76.80;;;;;;5055542;28;20935;-56
2024/03/09 03:45:17;;;;;;;16.50;11.80;;;8.40;76.70;;;;;;5055414;28;20477;-56
2024/03/09 03:47:44;;;;;;;14.80;10.83;;;8.40;76.70;;;;;;5055050;28;20473;-56
2024/03/09 03:50:13;;;;;;;14.53;11.27;;;8.40;76.60;;;;;;5055287;28;20446;-55
2024/03/09 03:52:40;;;;;;;14.00;10.23;;;8.40;76.80;;;;;;5055462;28;20810;-56
2024/03/09 03:55:11;;;;;;;13.30;10.77;;;8.40;76.90;;;;;;5054869;28;20497;-56
2024/03/09 03:57:40;;;;;;;13.53;11.17;;;8.40;77.10;;;;;;5055976;28;20468;-56
2024/03/09 04:00:11;;;;;;;16.80;12.67;;;8.40;77.10;;;;;;5055444;28;20499;-56
2024/03/09 04:02:41;;;;;;;16.53;12.00;;;8.40;76.90;;;;;;5055170;28;20434;-56
2024/03/09 04:05:08;;;;;;;15.40;11.20;;;8.40;77.00;;;;;;5055007;28;20469;-55
2024/03/09 04:07:37;;;;;;;14.83;10.70;;;8.40;77.20;;;;;;5054885;28;20442;-56
2024/03/09 04:10:04;;;;;;;17.27;11.30;;;8.40;77.20;;;;;;5054954;28;20471;-56
2024/03/09 04:12:31;;;;;;;17.03;12.87;;;8.40;77.60;;;;;;5055204;28;20476;-55
2024/03/09 04:14:58;;;;;;;15.30;11.13;;;8.40;77.90;;;;;;5053498;28;20491;-56
2024/03/09 04:17:25;;;;;;;17.67;13.00;;;8.40;78.00;;;;;;5054580;28;20504;-55
2024/03/09 04:19:52;;;;;;;15.43;11.80;;;8.40;78.10;;;;;;5054839;28;20450;-56
2024/03/09 04:22:19;;;;;;;14.37;11.73;;;8.40;78.20;;;;;;5054801;28;20453;-56
2024/03/09 04:24:48;;;;;;;16.53;11.93;;;8.40;78.30;;;;;;5054738;28;20461;-56
2024/03/09 04:27:14;;;;;;;16.07;11.73;;;8.40;77.70;;;;;;5054402;28;20948;-56
2024/03/09 04:29:44;;;;;;;17.03;12.00;;;8.40;77.50;;;;;;5054592;28;20520;-56
2024/03/09 04:32:13;;;;;;;15.83;12.10;;;8.40;77.80;;;;;;5054321;28;20446;-56
2024/03/09 04:34:40;;;;;;;13.83;11.27;;;8.40;78.20;;;;;;5055402;28;20520;-56
2024/03/09 04:37:07;;;;;;;14.40;10.90;;;8.40;78.40;;;;;;5054660;28;20441;-56
2024/03/09 04:39:39;;;;;;;16.13;11.87;;;8.40;78.40;;;;;;5054701;28;20523;-56
2024/03/09 04:42:07;;;;;;;18.20;11.80;;;8.50;78.60;;;;;;5054695;28;20434;-55
2024/03/09 04:44:34;;;;;;;15.70;12.03;;;8.50;78.70;;;;;;5054461;28;20557;-56
2024/03/09 04:47:01;;;;;;;14.17;11.27;;;8.50;78.60;;;;;;5054244;28;20445;-56
2024/03/09 04:49:29;;;;;;;16.63;12.47;;;8.50;78.40;;;;;;5053818;28;20495;-56
2024/03/09 04:51:57;;;;;;;16.30;11.57;;;8.60;78.40;;;;;;5054070;28;20445;-56
2024/03/09 04:54:24;;;;;;;16.50;12.47;;;8.50;78.70;;;;;;5053803;28;20488;-56
2024/03/09 04:56:51;;;;;;;18.23;12.80;;;8.50;79.00;;;;;;5054043;28;20442;-56
2024/03/09 04:59:19;;;;;;;18.90;13.20;;;8.50;79.10;;;;;;5054058;28;20821;-55
2024/03/09 05:01:46;;;;;;;16.80;11.50;;;8.50;79.00;;;;;;5053942;28;20445;-56
2024/03/09 05:04:14;;;;;;;16.30;12.20;;;8.60;78.90;;;;;;5053841;28;20457;-56
2024/03/09 05:06:41;;;;;;;17.33;13.27;;;8.60;78.80;;;;;;5053723;28;20446;-56
2024/03/09 05:09:09;;;;;;;16.50;13.00;;;8.60;78.80;;;;;;5053629;28;20446;-56
2024/03/09 05:11:36;;;;;;;16.27;12.43;;;8.60;79.30;;;;;;5054104;28;20441;-56
2024/03/09 05:14:05;;;;;;;16.30;12.20;;;8.60;79.40;;;;;;5053534;28;20489;-56
2024/03/09 05:16:33;;;;;;;15.07;12.10;;;8.60;79.40;;;;;;5053715;28;20511;-56
2024/03/09 05:19:00;;;;;;;18.57;13.07;;;8.60;79.40;;;;;;5053733;28;20448;-56
2024/03/09 05:21:28;;;;;;;17.53;13.10;;;8.60;79.40;;;;;;5054118;28;20859;-56
2024/03/09 05:23:55;;;;;;;13.13;11.73;;;8.60;79.60;;;;;;5053533;28;20881;-56
2024/03/09 05:26:23;;;;;;;17.83;12.60;;;8.60;79.50;;;;;;5053144;28;20835;-55
2024/03/09 05:28:50;;;;;;;15.60;11.50;;;8.50;80.00;;;;;;5053462;28;20453;-56
2024/03/09 05:31:26;;;;;;;15.07;12.63;;;8.40;80.40;;;;;;5053436;28;20464;-56
2024/03/09 05:33:54;;;;;;;17.33;13.20;;;8.50;80.50;;;;;;5053273;28;20465;-55
2024/03/09 05:36:22;;;;;;;17.60;12.20;;;8.50;80.50;;;;;;5053012;28;20987;-56
2024/03/09 05:38:49;;;;;;;18.10;13.37;;;8.40;80.70;;;;;;5053116;28;20940;-56
2024/03/09 05:41:16;;;;;;;16.73;12.23;;;8.40;80.70;;;;;;5052996;28;20447;-56
2024/03/09 05:43:46;;;;;;;19.10;12.40;;;8.40;80.80;;;;;;5053003;28;20774;-55
2024/03/09 05:46:14;;;;;;;18.23;13.10;;;8.40;81.10;;;;;;5052982;28;20865;-56
2024/03/09 05:48:44;;;;;;;15.10;11.07;;;8.40;81.10;;;;;;5052875;28;21043;-55
2024/03/09 05:51:14;;;;;;;17.80;12.93;;;8.40;81.20;;;;;;5053224;28;20461;-56
2024/03/09 05:53:41;;;;;;;17.80;13.30;;;8.40;80.90;;;;;;5052997;28;20461;-56
2024/03/09 05:56:08;;;;;;;15.70;12.57;;;8.40;81.00;;;;;;5052822;28;20469;-56
2024/03/09 05:58:35;;;;;;;17.70;12.63;;;8.40;81.50;;;;;;5052981;28;20940;-55
2024/03/09 06:01:02;;;;;;;16.20;11.97;;;8.40;82.20;;;;;;5052830;28;20799;-56
2024/03/09 06:03:29;;;;;;;18.23;12.67;;;8.40;81.30;;;;;;5053251;28;20445;-56
2024/03/09 06:05:56;;;;;;;16.90;12.43;;;8.40;81.00;;;;;;5052785;28;20473;-56
2024/03/09 06:08:24;;;;;;;18.10;13.57;;;8.40;81.20;;;;;;5052635;28;20454;-56
2024/03/09 06:10:53;;;;;;;18.20;12.50;;;8.40;81.00;;;;;;5053055;28;20445;-56
2024/03/09 06:13:20;;;;;;;18.20;12.77;;;8.40;80.70;;;;;;5053718;28;20835;-56
2024/03/09 06:15:48;;;;;;;17.17;13.10;;;8.40;80.90;;;;;;5053668;28;20987;-56
2024/03/09 06:18:19;;;;;;;17.70;12.90;;;8.40;80.20;;;;;;5053218;28;20454;-55
2024/03/09 06:20:46;;;;;;;17.63;13.87;;;8.40;80.20;;;;;;5053198;28;20792;-56
2024/03/09 06:23:14;;;;;;;16.70;12.70;;;8.50;80.40;;;;;;5053105;28;20801;-55
2024/03/09 06:25:42;;;;;;;21.23;14.17;;;8.50;80.40;;;;;;5052747;28;20484;-55
2024/03/09 06:28:14;;;;;;;19.40;13.43;;;8.40;81.00;;;;;;5052697;28;20491;-56
2024/03/09 06:30:41;;;;;;;17.57;13.10;;;8.40;81.00;;;;;;5053002;28;20804;-55
2024/03/09 06:33:09;;;;;;;17.97;13.60;;;8.40;80.20;;;;;;5052670;28;20846;-55
2024/03/09 06:35:36;;;;;;;15.30;12.20;;;8.40;80.10;;;;;;5052792;28;20489;-56
2024/03/09 06:38:05;;;;;;;17.67;12.73;;;8.50;80.10;;;;;;5054479;28;20452;-55
2024/03/09 06:40:34;;;;;;;18.97;13.77;;;8.50;80.20;;;;;;5056632;28;20445;-55
2024/03/09 06:43:05;;;;;;;17.70;13.20;;;8.50;80.00;;;;;;5056640;28;20499;-55
2024/03/09 06:45:32;;;;;;;18.60;12.77;;;8.50;79.90;;;;;;5056486;28;20468;-55
2024/03/09 06:47:59;;;;;;;17.07;12.20;;;8.50;80.20;;;;;;5056484;28;20441;-55
2024/03/09 06:50:27;;;;;;;15.40;12.60;;;8.50;80.80;;;;;;5056152;28;20452;-55
2024/03/09 06:52:54;;;;;;;19.30;12.90;;;8.50;80.80;;;;;;5056525;28;20445;-56
2024/03/09 06:55:24;;;;;;;18.37;12.90;;;8.50;81.00;;;;;;5056170;28;20497;-55
2024/03/09 06:57:52;;;;;;;17.70;13.50;;;8.60;80.80;;;;;;5056826;28;20436;-55
2024/03/09 07:00:21;;;;;;;18.83;13.10;;;8.50;80.70;;;;;;5056429;28;20447;-55
2024/03/09 07:02:52;;;;;;;18.20;13.57;;;8.50;80.70;;;;;;5056177;28;20442;-55
2024/03/09 07:05:20;;;;;;;20.10;13.07;;;8.50;80.40;;;;;;5056236;28;20800;-55
2024/03/09 07:07:48;;;;;;;16.27;12.40;;;8.50;80.90;;;;;;5056108;28;20447;-56
2024/03/09 07:10:14;;;;;;;19.40;12.97;;;8.60;80.80;;;;;;5055784;28;20457;-55
2024/03/09 07:12:41;;;;;;;18.10;13.50;;;8.50;80.20;;;;;;5055728;28;20812;-55
2024/03/09 07:15:14;;;;;;;19.93;13.27;;;8.60;80.50;;;;;;5055648;28;21017;-56
2024/03/09 07:17:43;;;;;;;18.53;13.50;;;8.50;80.70;;;;;;5056082;28;20426;-55
2024/03/09 07:20:13;;;;;;;17.63;14.10;;;8.50;80.90;;;;;;5055869;28;20450;-55
2024/03/09 07:22:41;;;;;;;17.40;14.00;;;8.60;81.00;;;;;;5055956;28;20432;-55
2024/03/09 07:25:10;;;;;;;18.67;13.70;;;8.60;80.90;;;;;;5055558;28;20465;-55
2024/03/09 07:27:40;;;;;;;18.97;13.90;;;8.60;80.30;;;;;;5055377;28;20445;-55
2024/03/09 07:30:09;;;;;;;16.90;13.07;;;8.70;80.60;;;;;;5055745;28;20430;-55
2024/03/09 07:32:37;;;;;;;18.63;14.20;;;8.70;79.80;;;;;;5056451;28;20457;-55
2024/03/09 07:35:11;;;;;;;18.90;13.37;;;8.70;80.20;;;;;;5055462;28;20489;-56
2024/03/09 07:37:42;;;;;;;14.97;12.10;;;8.80;80.20;;;;;;5055638;28;20430;-56
2024/03/09 07:40:10;;;;;;;18.50;14.13;;;8.90;79.80;;;;;;5055274;28;20892;-56
2024/03/09 07:42:37;;;;;;;17.17;12.57;;;8.90;79.40;;;;;;5055552;28;20461;-55
2024/03/09 07:45:06;;;;;;;17.17;13.43;;;9.00;79.40;;;;;;5055389;28;20497;-55
2024/03/09 07:47:34;;;;;;;18.10;13.00;;;9.10;79.40;;;;;;5055223;28;20450;-56
2024/03/09 07:50:00;;;;;;;16.10;12.97;;;9.10;78.60;;;;;;5054837;28;20453;-55
2024/03/09 07:52:29;;;;;;;19.57;14.40;;;9.10;78.20;;;;;;5055243;28;20452;-56
2024/03/09 07:54:56;;;;;;;18.00;12.97;;;9.20;79.30;;;;;;5055053;28;20580;-55
2024/03/09 07:57:22;;;;;;;17.70;13.07;;;9.20;77.70;;;;;;5054839;28;20931;-55
2024/03/09 07:59:49;;;;;;;21.73;14.30;;;9.20;77.10;;;;;;5054806;28;20939;-56
2024/03/09 08:02:16;;;;;;;20.90;14.17;;;9.30;76.80;;;;;;5055149;28;20805;-55
2024/03/09 08:04:43;;;;;;;16.73;12.67;;;9.40;77.30;;;;;;5055123;28;20536;-56
2024/03/09 08:07:11;;;;;;;18.33;13.90;;;9.40;77.00;;;;;;5055040;28;20442;-56
2024/03/09 08:09:41;;;;;;;17.67;13.17;;;9.50;76.70;;;;;;5054919;28;20453;-55
2024/03/09 08:12:08;;;;;;;19.97;14.63;;;9.50;76.70;;;;;;5054974;28;20449;-55
2024/03/09 08:14:35;;;;;;;18.83;13.67;;;9.50;77.20;;;;;;5055053;28;20482;-56
2024/03/09 08:17:04;;;;;;;18.80;13.53;;;9.60;76.80;;;;;;5054745;28;20442;-55
2024/03/09 08:19:31;;;;;;;20.33;15.07;;;9.70;77.10;;;;;;5054904;28;20454;-55
2024/03/09 08:21:58;;;;;;;18.33;13.70;;;9.70;76.60;;;;;;5054956;28;20442;-56
2024/03/09 08:24:25;;;;;;;20.00;15.63;;;9.80;76.50;;;;;;5054694;28;20454;-56
2024/03/09 08:26:54;;;;;;;20.87;14.37;;;9.80;76.30;;;;;;5054304;28;20993;-55
2024/03/09 08:29:21;;;;;;;21.77;14.73;;;9.90;76.00;;;;;;5054304;28;20874;-56
2024/03/09 08:31:48;;;;;;;16.57;13.60;;;10.00;74.50;;;;;;5062246;28;20966;-55
2024/03/09 08:34:15;;;;;;;19.40;13.67;;;10.10;73.80;;;;;;5074217;28;20472;-56
2024/03/09 08:36:42;;;;;;;15.73;13.10;;;10.10;74.10;;;;;;5074587;28;20483;-55
2024/03/09 08:39:12;;;;;;;20.50;14.07;;;10.20;74.10;;;;;;5074312;28;20444;-55
2024/03/09 08:41:39;;;;;;;18.97;14.60;;;10.20;73.30;;;;;;5074084;28;20947;-55
2024/03/09 08:44:08;;;;;;;17.17;14.00;;;10.30;73.30;;;;;;5073972;28;20821;-56
2024/03/09 08:46:34;;;;;;;18.70;13.10;;;10.50;73.40;;;;;;5074211;28;20518;-55
2024/03/09 08:49:01;;;;;;;18.07;12.97;;;10.50;72.60;;;;;;5073816;28;20483;-55
2024/03/09 08:51:28;;;;;;;17.20;13.50;;;10.60;72.10;;;;;;5074291;28;20446;-56
2024/03/09 08:53:56;;;;;;;20.70;14.60;;;10.70;71.30;;;;;;5073905;28;20467;-55
2024/03/09 08:56:23;;;;;;;22.73;14.70;;;10.80;71.10;;;;;;5074069;28;20489;-56
2024/03/09 08:58:50;;;;;;;17.70;13.70;;;10.90;71.50;;;;;;5074176;28;20445;-56
2024/03/09 09:01:18;;;;;;;19.37;14.63;;;11.10;70.80;;;;;;5073521;28;20440;-56
2024/03/09 09:03:45;;;;;;;20.57;14.97;;;11.30;70.50;;;;;;5073624;28;20942;-56
2024/03/09 09:06:12;;;;;;;16.57;13.40;;;11.60;68.50;;;;;;5073900;28;20825;-56
2024/03/09 09:08:41;;;;;;;20.43;14.37;;;11.90;68.00;;;;;;5073859;28;20440;-56
2024/03/09 09:11:13;;;;;;;18.37;14.30;;;12.10;65.90;;;;;;5073430;28;20448;-56
2024/03/09 09:13:39;;;;;;;14.47;11.73;;;12.20;64.40;;;;;;5073838;28;20520;-56
2024/03/09 09:16:09;;;;;;;17.70;12.60;;;12.20;64.60;;;;;;5073588;28;20846;-56
2024/03/09 09:18:37;;;;;;;15.50;12.30;;;12.20;63.60;;;;;;5073737;28;20498;-56
2024/03/09 09:21:05;;;;;;;18.80;13.33;;;12.30;63.60;;;;;;5073899;28;20448;-56
2024/03/09 09:23:32;;;;;;;18.20;14.90;;;12.30;63.50;;;;;;5073930;28;20448;-56
2024/03/09 09:26:01;;;;;;;15.23;13.10;;;12.30;63.50;;;;;;5074209;28;20982;-56
2024/03/09 09:28:28;;;;;;;16.80;12.70;;;12.40;63.60;;;;;;5074552;28;20471;-56
2024/03/09 09:30:54;;;;;;;15.93;13.90;;;12.30;63.10;;;;;;5074186;28;20497;-56
2024/03/09 09:33:21;;;;;;;16.33;12.80;;;12.20;63.00;;;;;;5073725;28;20448;-57
2024/03/09 09:35:51;;;;;;;15.80;12.10;;;12.20;63.60;;;;;;5073332;28;20495;-54
2024/03/09 09:38:18;;;;;;;19.10;13.87;;;12.00;62.90;;;;;;5073922;28;20440;-55
2024/03/09 09:40:48;;;;;;;16.10;13.47;;;11.90;63.10;;;;;;5073354;28;20932;-55
2024/03/09 09:43:15;;;;;;;17.37;12.70;;;11.90;63.80;;;;;;5073208;28;20489;-55
2024/03/09 09:45:44;;;;;;;18.53;13.80;;;11.90;63.80;;;;;;5073119;28;20465;-55
2024/03/09 09:48:13;;;;;;;17.17;13.33;;;12.00;63.80;;;;;;5073070;28;20950;-55
2024/03/09 09:50:44;;;;;;;17.03;14.13;;;12.00;63.70;;;;;;5073322;28;20479;-55
2024/03/09 09:53:17;;;;;;;18.27;14.53;;;12.00;63.70;;;;;;5074168;28;20429;-55
2024/03/09 09:55:46;;;;;;;19.00;14.43;;;12.00;64.00;;;;;;5073240;28;20587;-55
2024/03/09 09:58:13;;;;;;;19.93;13.20;;;12.00;64.60;;;;;;5073148;28;20998;-56
2024/03/09 10:00:41;;;;;;;18.03;13.27;;;12.10;64.10;;;;;;5073284;28;20445;-55
2024/03/09 10:03:08;;;;;;;18.43;13.30;;;12.20;63.00;;;;;;5073132;28;20445;-55
2024/03/09 10:05:35;;;;;;;16.27;13.60;;;12.40;62.60;;;;;;5073292;28;20894;-55
2024/03/09 10:08:04;;;;;;;17.17;13.63;;;12.60;61.40;;;;;;5073502;28;20449;-55
2024/03/09 10:10:35;;;;;;;17.47;14.23;;;12.90;61.20;;;;;;5073100;28;20445;-56
2024/03/09 10:13:06;;;;;;;19.10;13.93;;;13.10;59.90;;;;;;5076607;28;20429;-54
2024/03/09 10:15:33;;;;;;;15.90;13.60;;;13.20;59.40;;;;;;5076957;28;20579;-56
2024/03/09 10:18:00;;;;;;;15.23;12.53;;;13.50;59.40;;;;;;5077158;28;20452;-54
2024/03/09 10:20:29;;;;;;;18.80;13.37;;;13.70;58.30;;;;;;5076707;28;20443;-54
2024/03/09 10:22:57;;;;;;;19.40;13.87;;;14.00;57.80;;;;;;5076957;28;20444;-55
2024/03/09 10:25:26;;;;;;;16.80;13.33;;;14.30;56.90;;;;;;5076862;28;20552;-55
2024/03/09 10:27:58;;;;;;;16.43;13.30;;;14.60;56.70;;;;;;5076846;28;20521;-56
2024/03/09 10:30:25;;;;;;;18.47;13.70;;;15.00;56.10;;;;;;5076804;28;20844;-55
2024/03/09 10:32:53;;;;;;;17.10;14.07;;;15.30;54.70;;;;;;5076701;28;20440;-56
2024/03/09 10:35:20;;;;;;;18.10;13.93;;;15.30;53.80;;;;;;5076232;28;21059;-56
2024/03/09 10:37:55;;;;;;;16.70;14.10;;;15.20;53.80;;;;;;5076572;28;20445;-55
2024/03/09 10:40:23;;;;;;;16.40;13.50;;;15.10;54.00;;;;;;5076298;28;20810;-55
2024/03/09 10:42:51;;;;;;;16.27;13.47;;;15.00;54.40;;;;;;5076560;28;20495;-55
2024/03/09 10:45:21;;;;;;;16.13;13.90;;;15.00;54.50;;;;;;5076641;28;20467;-55
2024/03/09 10:47:50;;;;;;;18.07;13.87;;;15.00;54.70;;;;;;5076836;28;20425;-55
2024/03/09 10:50:24;;;;;;;16.33;13.70;;;14.90;54.80;;;;;;5076328;28;20531;-55
2024/03/09 10:53:02;;;;;;;15.23;13.57;;;15.00;54.90;;;;;;5076459;28;20432;-55
2024/03/09 10:55:39;;;;;;;16.63;13.97;;;15.20;54.50;;;;;;5076308;28;20476;-56
2024/03/09 10:58:06;;;;;;;17.00;14.00;;;15.30;54.00;;;;;;5076206;28;20486;-56
2024/03/09 11:00:35;;;;;;;18.70;13.23;;;15.80;53.90;;;;;;5076426;28;20498;-56
2024/03/09 11:03:08;;;;;;;15.50;13.90;;;16.10;52.60;;;;;;5076298;28;20814;-55
2024/03/09 11:05:38;;;;;;;16.33;13.37;;;16.30;51.80;;;;;;5076266;28;20479;-55
2024/03/09 11:08:09;;;;;;;16.30;14.60;;;16.30;51.50;;;;;;5076472;28;20440;-56
2024/03/09 11:10:40;;;;;;;18.47;14.10;;;16.30;51.20;;;;;;5076097;28;20436;-55
2024/03/09 11:13:08;;;;;;;14.90;13.33;;;16.20;51.10;;;;;;5075937;28;20444;-55
2024/03/09 11:15:38;;;;;;;17.60;14.40;;;16.10;50.90;;;;;;5075828;28;20492;-56
2024/03/09 11:18:07;;;;;;;14.67;13.00;;;16.10;51.50;;;;;;5075647;28;20468;-55
2024/03/09 11:20:36;;;;;;;15.90;13.03;;;16.00;51.60;;;;;;5076001;28;20447;-56
2024/03/09 11:23:03;;;;;;;19.20;16.03;;;16.00;51.80;;;;;;5075167;28;20448;-56
2024/03/09 11:25:45;;;;;;;16.93;14.13;;;16.10;51.40;;;;;;5075725;28;20472;-56
2024/03/09 11:28:12;;;;;;;16.00;13.70;;;16.50;51.10;;;;;;5075860;28;20439;-56
2024/03/09 11:30:59;;;;;;;15.20;13.30;;;16.80;49.70;;;;;;5075654;28;20503;-56
2024/03/09 11:33:30;;;;;;;14.53;12.73;;;17.20;49.20;;;;;;5075231;28;20429;-56
2024/03/09 11:35:58;;;;;;;15.43;13.83;;;17.80;48.50;;;;;;5075492;28;20480;-56
2024/03/09 11:38:30;;;;;;;16.37;13.50;;;18.70;45.80;;;;;;5075725;28;20440;-56
2024/03/09 11:40:57;;;;;;;16.03;14.07;;;19.40;44.00;;;;;;5075475;28;20482;-56
2024/03/09 11:43:24;;;;;;;15.33;13.60;;;20.20;43.80;;;;;;5075442;28;20440;-56
2024/03/09 11:45:52;;;;;;;14.20;12.80;;;21.00;42.10;;;;;;5074994;28;20465;-57
2024/03/09 11:48:21;;;;;;;13.40;12.00;;;21.60;41.00;;;;;;5075299;28;20502;-56
2024/03/09 11:50:48;;;;;;;14.33;12.83;;;22.30;40.10;;;;;;5075170;28;20449;-56
2024/03/09 11:53:15;;;;;;;16.57;13.33;;;23.10;38.80;;;;;;5075270;28;20441;-56
2024/03/09 11:55:42;;;;;;;19.37;13.87;;;24.00;37.40;;;;;;5074922;28;20511;-57
2024/03/09 11:58:09;;;;;;;28.70;14.23;;;24.90;35.00;;;;;;5074833;28;20472;-56
2024/03/09 12:00:35;;;;;;;23.10;13.03;;;25.40;32.60;;;;;;5075086;28;20451;-56
2024/03/09 12:03:17;;;;;;;16.13;13.97;;;26.10;32.50;;;;;;5074715;28;20959;-56
2024/03/09 12:05:44;;;;;;;22.13;13.30;;;26.70;30.80;;;;;;5074975;28;20584;-57
2024/03/09 12:08:11;;;;;;;19.60;12.63;;;26.70;30.70;;;;;;5074550;28;20788;-57
2024/03/09 12:10:38;;;;;;;17.90;12.87;;;26.40;30.10;;;;;;5074960;28;20440;-56
2024/03/09 12:13:06;;;;;;;14.77;13.37;;;25.90;30.80;;;;;;5074817;28;20473;-56
2024/03/09 12:15:34;;;;;;;14.20;12.80;;;25.50;31.00;;;;;;5074754;28;20501;-57
2024/03/09 12:18:03;;;;;;;14.73;13.23;;;25.30;31.10;;;;;;5074831;28;20814;-56
2024/03/09 12:20:32;;;;;;;13.03;11.80;;;25.50;32.60;;;;;;5074855;28;20463;-56
2024/03/09 12:22:59;;;;;;;14.90;13.50;;;26.40;31.90;;;;;;5074712;28;20499;-57
2024/03/09 12:25:26;;;;;;;15.50;12.73;;;27.50;29.70;;;;;;5074650;28;20464;-57
2024/03/09 12:27:53;;;;;;;15.80;13.43;;;28.50;28.70;;;;;;5074885;28;20790;-57
2024/03/09 12:30:23;;;;;;;14.37;12.87;;;29.30;26.40;;;;;;5074328;28;20543;-57
2024/03/09 12:32:52;;;;;;;18.53;13.57;;;29.70;26.30;;;;;;5074388;28;20450;-57
2024/03/09 12:35:19;;;;;;;14.77;12.23;;;30.30;26.10;;;;;;5073457;28;20461;-57
2024/03/09 12:37:47;;;;;;;18.87;12.70;;;31.00;25.00;;;;;;5074513;28;20482;-55
2024/03/09 12:40:18;;;;;;;13.80;12.50;;;31.50;24.40;;;;;;5074618;28;20444;-55